Huvudsida
METAR-TAF:

METAR-TAF

Flygplatser :

Seattle

Seattle / Tacoma, Washington, USA

latitud: 47-26-41N, longitud: 122-18-49W, höjd: 130 m

Aktuellt väderrapport

Denna rapport gjordes för 53 minuter sedan, klockan 08:53 UTC
Vind 10 kt från nord/nordost
Temperatur 13°C
Fuktighet 72%
Tryck 1025 hPa
Sikt: 16.1 km
Klar himmel

METAR: KSEA 250853Z 03010KT 10SM CLR 13/08 A3028 RMK AO2 SLP259 T01280078 55001

Tid: 02:46 (09:46 UTC)

Väderprognos

Denna rapport gjordes för 46 minuter sedan, klockan 09:00 UTC
Prognos gäller från 25 kl. 09 UTC till 26 kl. 12 UTC
Vind 10 kt från nord/nordost
Sikt: 10 km
Klar himmel
Från 25 kl. 1800 UTC
Vind 10 kt från nord/nordväst
Sikt: 10 km
Spridda moln på en höjd av 25000 ft

TAF: KSEA 250900Z 2509/2612 02010KT P6SM SKC FM251800 34010KT P6SM SCT250

Aktuella väderrapporter och prognoser från 4000 flygplatser (METAR- och TAF-rapporter).

De tillgängliga stationerna syns som gula och röda prickar på kartan.

För musen över prickarna för att se namnen på stationerna.

Klicka sedan för att få väderrapporter och prognoser.

För att ändra kartan: Klicka på de gröna knapparna med ett svart kors på för att zooma in; den gröna knappen med ett streck på för att zooma ut; eller på de gröna pilarna för angränsande kartor.


METAR-TAF: